Pioneer Knutsen — LMIK — position and weather

sailwx.info

Track history (hours):
 
Tides and Currents Weather Stations Pressure Air Temp Water Temp Dewpoint Dewpoint Depression Visibility Wind Speed Wind Dir Waves Ship Positions

Pioneer Knutsen

Last reported at 2016-Dec-10 22:33 UTC. Time now 2016-Dec-10 22:34 UTC.
Position N 63°52' E 009°42'.

Length 70 m; draft 3.6 m.

Type: Ship. MMSI: 259393000.

Date/timePositionNaut miles runAvg speedWind from/ knotsBaromVisibWave heightAir tempDewpointWater temp
2016-Dec-10 22:33N 63°52' E 009°42'1211.9
2016-Dec-10 21:33N 63°41' E 009°30'1211.1
2016-Dec-10 20:31N 63°32' E 009°14'2811.8
2016-Dec-10 18:10N 63°20' E 008°19'712.1
2016-Dec-10 17:34N 63°15' E 008°05'1212.0
2016-Dec-10 16:33N 63°09' E 007°42'1212.2
2016-Dec-10 15:34N 63°03' E 007°19'2311.7
2016-Dec-10 13:33N 62°49' E 006°38'10 0.3
2016-Dec-08 23:33N 62°40' E 006°26'1010.0
2016-Dec-08 22:33N 62°49' E 006°37'10 9.0
2016-Dec-08 21:27N 62°57' E 006°49'7 7.6
2016-Dec-08 20:30N 63°01' E 007°03'8 8.2
2016-Dec-08 19:33N 63°03' E 007°19'9 8.7
2016-Dec-08 18:33N 63°08' E 007°36'1010.0
2016-Dec-08 17:34N 62°59' E 007°46'10 1.3
2016-Dec-08 09:12N 62°55' E 008°08'710.3
2016-Dec-08 08:34N 62°58' E 007°55'9 9.0
2016-Dec-08 07:34N 63°05' E 007°42'3 3.0
2016-Dec-08 06:32N 63°06' E 007°48'0 0.0
2016-Dec-08 05:32N 63°06' E 007°48'0 0.0
2016-Dec-08 04:29N 63°06' E 007°48'0 0.0
2016-Dec-08 03:31N 63°06' E 007°48'0 0.0
2016-Dec-08 02:31N 63°06' E 007°48'4 3.9
2016-Dec-08 01:33N 63°09' E 007°43'1110.8
2016-Dec-08 00:31N 63°16' E 008°04'3210.9
2016-Dec-07 21:33N 63°31' E 009°08'1111.4
2016-Dec-07 20:34N 63°38' E 009°28'1110.9
2016-Dec-07 19:34N 63°48' E 009°35'2 1.6
2016-Dec-07 18:34N 63°49' E 009°38'0 0.0
2016-Dec-07 17:33N 63°49' E 009°38'0 0.0
2016-Dec-07 16:27N 63°49' E 009°38'4 4.6
2016-Dec-07 15:34N 63°46' E 009°33'1511.5
2016-Dec-07 14:14N 63°32' E 009°16'3212.1
2016-Dec-07 11:33N 63°17' E 008°12'1212.4
2016-Dec-07 10:33N 63°11' E 007°48'1212.2
2016-Dec-07 09:33N 63°05' E 007°25'2411.8
2016-Dec-07 07:32N 62°51' E 006°42'14 0.4
2016-Dec-05 18:16N 62°39' E 006°24'912.2
2016-Dec-05 17:33N 62°47' E 006°35'1211.4
2016-Dec-05 16:31N 62°57' E 006°49'9 9.8
2016-Dec-05 15:33N 63°01' E 007°07'1010.4
2016-Dec-05 14:33N 63°05' E 007°28'1110.7
2016-Dec-05 13:33N 63°11' E 007°47'1111.2
2016-Dec-05 12:33N 63°17' E 008°09'2610.8
2016-Dec-05 10:10N 63°29' E 008°60'710.6
2016-Dec-05 09:33N 63°32' E 009°13'1010.5
2016-Dec-05 08:33N 63°40' E 009°29'1212.1
2016-Dec-05 07:33N 63°51' E 009°39'1211.1
2016-Dec-05 06:26N 64°03' E 009°49'48 9.9
2016-Dec-05 01:32N 64°43' E 010°52'1010.7
2016-Dec-05 00:34N 64°50' E 011°10'1010.4
2016-Dec-04 23:33N 64°57' E 011°28'1111.3
2016-Dec-04 22:34N 65°05' E 011°46'14 0.7
2016-Dec-04 03:22N 65°18' E 011°59'1012.2
2016-Dec-04 02:33N 65°08' E 011°50'1211.7
2016-Dec-04 01:33N 64°59' E 011°34'1212.1
2016-Dec-04 00:33N 64°51' E 011°13'5711.5
2016-Dec-03 19:33N 64°04' E 009°54'1111.4
2016-Dec-03 18:33N 63°54' E 009°46'1211.8
2016-Dec-03 17:33N 63°43' E 009°32'1311.2
2016-Dec-03 16:22N 63°32' E 009°15'3512.3
2016-Dec-03 13:33N 63°16' E 008°08'1312.6
2016-Dec-03 12:33N 63°10' E 007°43'1212.3
2016-Dec-03 11:33N 63°03' E 007°20'2311.6
2016-Dec-03 09:33N 62°49' E 006°39'11414.2
2016-Dec-03 01:29N 61°05' E 005°00'8 8.3
2016-Dec-03 00:33N 61°00' E 004°48'2 0.9
2016-Dec-02 22:32N 61°01' E 004°51'7 7.5
2016-Dec-02 21:33N 60°54' E 004°46'8 8.0
2016-Dec-02 20:32N 60°46' E 004°47'8 8.6
2016-Dec-02 19:33N 60°38' E 004°53'5 5.2
2016-Dec-02 18:33N 60°33' E 004°53'0 0.0
2016-Dec-02 17:33N 60°33' E 004°53'0 0.0
2016-Dec-02 16:32N 60°33' E 004°53'268272.1
2016-Dec-02 15:33N 64°15' E 010°17'8 8.0
2016-Dec-02 14:32N 64°08' E 010°06'8 8.4
2016-Dec-02 13:33N 64°04' E 009°51'7 6.9
2016-Dec-02 12:33N 63°57' E 009°47'8 7.8
2016-Dec-02 11:33N 63°50' E 009°38'8 7.8
2016-Dec-02 10:32N 63°43' E 009°31'181181.9
2016-Dec-02 09:33N 61°32' E 005°00'8 7.8
2016-Dec-02 08:32N 61°39' E 004°59'8 7.7
2016-Dec-02 07:33N 61°47' E 005°03'7 7.1
2016-Dec-02 06:30N 61°51' E 005°16'6 6.8
2016-Dec-02 05:33N 61°56' E 005°07'8 7.5
2016-Dec-02 04:32N 62°04' E 005°08'9 3.9
2016-Dec-02 02:08N 62°12' E 005°17'3 5.4
2016-Dec-02 01:33N 62°11' E 005°24'7 7.4
2016-Dec-02 00:33N 62°11' E 005°40'8 8.0
2016-Dec-01 23:32N 62°14' E 005°55'9 8.6
2016-Dec-01 22:32N 62°21' E 006°07'8 7.6
2016-Dec-01 21:32N 62°29' E 006°04'5 5.0
2016-Dec-01 20:33N 62°33' E 006°10'16 8.1
2016-Dec-01 18:33N 62°45' E 006°33'20 9.9
2016-Dec-01 16:33N 63°00' E 006°60'9 8.8
2016-Dec-01 15:33N 63°03' E 007°18'10 9.9
2016-Dec-01 14:34N 63°08' E 007°37'1010.0
2016-Dec-01 13:34N 63°13' E 007°56'3411.2
2016-Dec-01 10:34N 63°29' E 009°01'1210.7
2016-Dec-01 09:27N 63°35' E 009°25'1011.6
2016-Dec-01 08:33N 63°45' E 009°32'20081.6
2016-Dec-01 06:07N 61°09' E 005°01'204299.5
2016-Dec-01 05:26N 63°49' E 009°38'4 4.2
2016-Dec-01 04:33N 63°46' E 009°33'7 7.4
2016-Dec-01 03:33N 63°52' E 009°42'8 7.5
2016-Dec-01 02:34N 63°58' E 009°54'245243.4
2016-Dec-01 01:33N 60°37' E 004°53'4 3.6
2016-Dec-01 00:31N 60°33' E 004°53'0 0.0
2016-Nov-30 23:33N 60°33' E 004°53'0 0.0
2016-Nov-30 22:32N 60°33' E 004°53'  
Track history (hours):
 
Tides and Currents Weather Stations Pressure Air Temp Water Temp Dewpoint Dewpoint Depression Visibility Wind Speed Wind Dir Waves Ship Positions

Pioneer Knutsen

Last reported at 2016-Dec-10 22:33 UTC. Time now 2016-Dec-10 22:34 UTC.
Position N 63°52' E 009°42'.

Length 70 m; draft 3.6 m.

Type: Ship. MMSI: 259393000.

Date/timePositionNaut miles runAvg speedWind from/ knotsBaromVisibWave heightAir tempDewpointWater temp
2016-Dec-10 22:33N 63°52' E 009°42'1211.9
2016-Dec-10 21:33N 63°41' E 009°30'1211.1
2016-Dec-10 20:31N 63°32' E 009°14'2811.8
2016-Dec-10 18:10N 63°20' E 008°19'712.1
2016-Dec-10 17:34N 63°15' E 008°05'1212.0
2016-Dec-10 16:33N 63°09' E 007°42'1212.2
2016-Dec-10 15:34N 63°03' E 007°19'2311.7
2016-Dec-10 13:33N 62°49' E 006°38'10 0.3
2016-Dec-08 23:33N 62°40' E 006°26'1010.0
2016-Dec-08 22:33N 62°49' E 006°37'10 9.0
2016-Dec-08 21:27N 62°57' E 006°49'7 7.6
2016-Dec-08 20:30N 63°01' E 007°03'8 8.2
2016-Dec-08 19:33N 63°03' E 007°19'9 8.7
2016-Dec-08 18:33N 63°08' E 007°36'1010.0
2016-Dec-08 17:34N 62°59' E 007°46'10 1.3
2016-Dec-08 09:12N 62°55' E 008°08'710.3
2016-Dec-08 08:34N 62°58' E 007°55'9 9.0
2016-Dec-08 07:34N 63°05' E 007°42'3 3.0
2016-Dec-08 06:32N 63°06' E 007°48'0 0.0
2016-Dec-08 05:32N 63°06' E 007°48'0 0.0
2016-Dec-08 04:29N 63°06' E 007°48'0 0.0
2016-Dec-08 03:31N 63°06' E 007°48'0 0.0
2016-Dec-08 02:31N 63°06' E 007°48'4 3.9
2016-Dec-08 01:33N 63°09' E 007°43'1110.8
2016-Dec-08 00:31N 63°16' E 008°04'3210.9
2016-Dec-07 21:33N 63°31' E 009°08'1111.4
2016-Dec-07 20:34N 63°38' E 009°28'1110.9
2016-Dec-07 19:34N 63°48' E 009°35'2 1.6
2016-Dec-07 18:34N 63°49' E 009°38'0 0.0
2016-Dec-07 17:33N 63°49' E 009°38'0 0.0
2016-Dec-07 16:27N 63°49' E 009°38'4 4.6
2016-Dec-07 15:34N 63°46' E 009°33'1511.5
2016-Dec-07 14:14N 63°32' E 009°16'3212.1
2016-Dec-07 11:33N 63°17' E 008°12'1212.4
2016-Dec-07 10:33N 63°11' E 007°48'1212.2
2016-Dec-07 09:33N 63°05' E 007°25'2411.8
2016-Dec-07 07:32N 62°51' E 006°42'14 0.4
2016-Dec-05 18:16N 62°39' E 006°24'912.2
2016-Dec-05 17:33N 62°47' E 006°35'1211.4
2016-Dec-05 16:31N 62°57' E 006°49'9 9.8
2016-Dec-05 15:33N 63°01' E 007°07'1010.4
2016-Dec-05 14:33N 63°05' E 007°28'1110.7
2016-Dec-05 13:33N 63°11' E 007°47'1111.2
2016-Dec-05 12:33N 63°17' E 008°09'2610.8
2016-Dec-05 10:10N 63°29' E 008°60'710.6
2016-Dec-05 09:33N 63°32' E 009°13'1010.5
2016-Dec-05 08:33N 63°40' E 009°29'1212.1
2016-Dec-05 07:33N 63°51' E 009°39'1211.1
2016-Dec-05 06:26N 64°03' E 009°49'48 9.9
2016-Dec-05 01:32N 64°43' E 010°52'1010.7
2016-Dec-05 00:34N 64°50' E 011°10'1010.4
2016-Dec-04 23:33N 64°57' E 011°28'1111.3
2016-Dec-04 22:34N 65°05' E 011°46'14 0.7
2016-Dec-04 03:22N 65°18' E 011°59'1012.2
2016-Dec-04 02:33N 65°08' E 011°50'1211.7
2016-Dec-04 01:33N 64°59' E 011°34'1212.1
2016-Dec-04 00:33N 64°51' E 011°13'5711.5
2016-Dec-03 19:33N 64°04' E 009°54'1111.4
2016-Dec-03 18:33N 63°54' E 009°46'1211.8
2016-Dec-03 17:33N 63°43' E 009°32'1311.2
2016-Dec-03 16:22N 63°32' E 009°15'3512.3
2016-Dec-03 13:33N 63°16' E 008°08'1312.6
2016-Dec-03 12:33N 63°10' E 007°43'1212.3
2016-Dec-03 11:33N 63°03' E 007°20'2311.6
2016-Dec-03 09:33N 62°49' E 006°39'11414.2
2016-Dec-03 01:29N 61°05' E 005°00'8 8.3
2016-Dec-03 00:33N 61°00' E 004°48'2 0.9
2016-Dec-02 22:32N 61°01' E 004°51'7 7.5
2016-Dec-02 21:33N 60°54' E 004°46'8 8.0
2016-Dec-02 20:32N 60°46' E 004°47'8 8.6
2016-Dec-02 19:33N 60°38' E 004°53'5 5.2
2016-Dec-02 18:33N 60°33' E 004°53'0 0.0
2016-Dec-02 17:33N 60°33' E 004°53'0 0.0
2016-Dec-02 16:32N 60°33' E 004°53'268272.1
2016-Dec-02 15:33N 64°15' E 010°17'8 8.0
2016-Dec-02 14:32N 64°08' E 010°06'8 8.4
2016-Dec-02 13:33N 64°04' E 009°51'7 6.9
2016-Dec-02 12:33N 63°57' E 009°47'8 7.8
2016-Dec-02 11:33N 63°50' E 009°38'8 7.8
2016-Dec-02 10:32N 63°43' E 009°31'181181.9
2016-Dec-02 09:33N 61°32' E 005°00'8 7.8
2016-Dec-02 08:32N 61°39' E 004°59'8 7.7
2016-Dec-02 07:33N 61°47' E 005°03'7 7.1
2016-Dec-02 06:30N 61°51' E 005°16'6 6.8
2016-Dec-02 05:33N 61°56' E 005°07'8 7.5
2016-Dec-02 04:32N 62°04' E 005°08'9 3.9
2016-Dec-02 02:08N 62°12' E 005°17'3 5.4
2016-Dec-02 01:33N 62°11' E 005°24'7 7.4
2016-Dec-02 00:33N 62°11' E 005°40'8 8.0
2016-Dec-01 23:32N 62°14' E 005°55'9 8.6
2016-Dec-01 22:32N 62°21' E 006°07'8 7.6
2016-Dec-01 21:32N 62°29' E 006°04'5 5.0
2016-Dec-01 20:33N 62°33' E 006°10'16 8.1
2016-Dec-01 18:33N 62°45' E 006°33'20 9.9
2016-Dec-01 16:33N 63°00' E 006°60'9 8.8
2016-Dec-01 15:33N 63°03' E 007°18'10 9.9
2016-Dec-01 14:34N 63°08' E 007°37'1010.0
2016-Dec-01 13:34N 63°13' E 007°56'3411.2
2016-Dec-01 10:34N 63°29' E 009°01'1210.7
2016-Dec-01 09:27N 63°35' E 009°25'1011.6
2016-Dec-01 08:33N 63°45' E 009°32'20081.6
2016-Dec-01 06:07N 61°09' E 005°01'204299.5
2016-Dec-01 05:26N 63°49' E 009°38'4 4.2
2016-Dec-01 04:33N 63°46' E 009°33'7 7.4
2016-Dec-01 03:33N 63°52' E 009°42'8 7.5
2016-Dec-01 02:34N 63°58' E 009°54'245243.4
2016-Dec-01 01:33N 60°37' E 004°53'4 3.6
2016-Dec-01 00:31N 60°33' E 004°53'0 0.0
2016-Nov-30 23:33N 60°33' E 004°53'0 0.0
2016-Nov-30 22:32N 60°33' E 004°53'  

Dump ship's entire track history